Time;durP1;ratioP1;P1;durP2;ratioP2;P2;SDS_P1;SDS_P2;PMS_P1;PMS_P2;Temp;Humidity;BMP_temperature;BMP_pressure;BME280_temperature;BME280_humidity;BME280_pressure;Samples;Min_cycle;Max_cycle;Signal;HPM_P1;HPM_P2
2022/01/21 00:00:31;;;;;;;11.45;3.25;;;;;;;3.55;52.49;100082.09;4488121;31;34157;-77
2022/01/21 00:03:01;;;;;;;11.88;3.45;;;;;;;3.45;52.60;100092.16;4475532;31;34661;-78
2022/01/21 00:05:29;;;;;;;15.82;4.22;;;;;;;3.47;52.48;100093.72;4487969;31;32795;-77
2022/01/21 00:07:56;;;;;;;7.62;2.70;;;;;;;3.72;52.20;100083.09;4475323;31;33713;-78
2022/01/21 00:10:25;;;;;;;8.02;2.53;;;;;;;3.81;51.94;100079.47;4475428;31;35505;-77
2022/01/21 00:12:53;;;;;;;8.20;2.35;;;;;;;3.67;52.40;100082.72;4475295;31;34622;-77
2022/01/21 00:15:24;;;;;;;9.85;2.85;;;;;;;3.55;52.39;100088.37;4475086;31;31854;-77
2022/01/21 00:17:51;;;;;;;8.85;2.25;;;;;;;3.68;51.88;100093.41;4475107;31;32178;-77
2022/01/21 00:31:44;;;;;;;7.57;1.70;;;;;;;3.03;53.09;100106.28;4477028;31;33994;-77
2022/01/21 00:34:12;;;;;;;6.07;2.20;;;;;;;3.42;51.98;100106.03;4487931;31;34513;-77
2022/01/21 00:36:42;;;;;;;6.72;1.75;;;;;;;3.51;51.89;100102.41;4474966;31;31754;-77
2022/01/21 00:39:13;;;;;;;7.57;1.70;;;;;;;3.19;52.53;100083.94;4475242;31;33580;-77
2022/01/21 00:41:53;;;;;;;4.85;1.50;;;;;;;3.41;52.16;100078.06;4475640;31;34424;-77
2022/01/21 00:44:21;;;;;;;5.43;2.55;;;;;;;3.37;52.49;100087.50;4489249;31;35168;-77
2022/01/21 00:46:49;;;;;;;4.45;1.60;;;;;;;3.35;52.30;100081.37;4487779;31;31608;-77
2022/01/21 00:49:19;;;;;;;4.57;1.70;;;;;;;3.43;52.27;100086.03;4461904;31;32003;-77
2022/01/21 00:51:50;;;;;;;6.30;1.65;;;;;;;3.19;52.53;100086.66;4487880;31;34205;-77
2022/01/21 00:54:18;;;;;;;6.00;1.83;;;;;;;3.59;51.65;100086.22;4475023;31;33852;-77
2022/01/21 00:56:46;;;;;;;4.45;1.67;;;;;;;3.45;51.71;100081.31;4475175;31;33456;-77
2022/01/21 00:59:14;;;;;;;6.65;1.70;;;;;;;3.22;52.41;100097.19;4474874;31;34785;-77
2022/01/21 01:01:42;;;;;;;4.95;1.60;;;;;;;3.11;52.77;100100.97;4474968;31;34651;-77
2022/01/21 01:04:10;;;;;;;5.87;1.70;;;;;;;3.11;53.24;100103.66;4475130;31;34216;-77
2022/01/21 01:06:37;;;;;;;6.18;1.60;;;;;;;3.32;52.59;100106.09;4474796;31;33213;-77
2022/01/21 01:09:09;;;;;;;3.72;1.55;;;;;;;3.46;52.38;100113.72;4487937;31;34517;-77
2022/01/21 01:20:00;;;;;;;4.00;1.08;;;;;;;3.29;51.57;100109.09;4489963;31;33880;-77
2022/01/21 01:27:57;;;;;;;1.90;0.80;;;;;;;2.82;52.92;100122.78;4476758;31;31316;-77
2022/01/21 01:30:31;;;;;;;2.60;0.90;;;;;;;3.17;52.18;100121.19;4487755;31;33575;-78
2022/01/21 01:33:01;;;;;;;4.43;0.95;;;;;;;3.16;52.29;100123.06;4487618;31;35133;-77
2022/01/21 01:35:32;;;;;;;4.18;0.85;;;;;;;3.10;52.53;100123.66;4487785;31;34063;-77
2022/01/21 01:40:47;;;;;;;5.37;0.90;;;;;;;3.09;52.61;100126.53;4473727;31;32286;-77
2022/01/21 01:51:19;;;;;;;2.62;0.80;;;;;;;2.90;53.99;100132.88;4489076;31;33684;-77
2022/01/21 01:54:10;;;;;;;5.45;1.37;;;;;;;2.78;54.27;100144.91;4487742;31;34491;-78
2022/01/21 01:56:43;;;;;;;4.87;0.80;;;;;;;2.48;55.34;100146.88;4474374;31;32834;-77
2022/01/21 01:59:11;;;;;;;2.58;0.90;;;;;;;2.25;56.73;100156.31;4474593;31;33819;-77
2022/01/21 02:01:41;;;;;;;4.07;1.23;;;;;;;1.81;58.77;100149.66;4474454;31;32429;-77
2022/01/21 02:04:11;;;;;;;3.05;0.98;;;;;;;2.25;57.36;100157.16;4487317;31;35303;-77
2022/01/21 02:06:39;;;;;;;2.30;0.90;;;;;;;2.49;56.81;100151.28;4474473;31;33824;-77
2022/01/21 02:09:06;;;;;;;5.97;1.50;;;;;;;2.49;57.07;100145.00;4487629;31;33250;-77
2022/01/21 02:11:35;;;;;;;2.35;1.00;;;;;;;2.41;57.47;100145.75;4474252;31;32248;-77
2022/01/21 02:14:08;;;;;;;2.42;0.90;;;;;;;2.48;57.44;100148.72;4501474;31;35308;-77
2022/01/21 02:17:08;;;;;;;3.83;0.95;;;;;;;2.25;58.13;100159.88;4488218;31;33864;-77
2022/01/21 02:22:24;;;;;;;2.95;1.05;;;;;;;2.66;57.52;100146.94;4489442;31;34779;-77
2022/01/21 02:24:56;;;;;;;4.32;0.95;;;;;;;2.65;57.36;100131.69;4487251;31;35387;-77
2022/01/21 02:27:24;;;;;;;5.47;1.25;;;;;;;2.84;56.49;100136.19;4474694;31;33752;-78
2022/01/21 02:30:01;;;;;;;5.07;1.00;;;;;;;2.73;56.85;100120.09;4474237;31;33237;-77
2022/01/21 02:32:34;;;;;;;2.37;1.00;;;;;;;2.96;56.13;100122.28;4475618;31;34023;-78
2022/01/21 02:35:02;;;;;;;6.68;1.10;;;;;;;2.85;56.93;100127.91;4487371;31;34417;-77
2022/01/21 02:37:31;;;;;;;3.87;1.50;;;;;;;2.69;57.08;100129.53;4474184;31;33357;-78
2022/01/21 02:40:01;;;;;;;4.40;1.25;;;;;;;3.01;56.36;100129.97;4473669;31;31866;-78
2022/01/21 02:42:32;;;;;;;3.75;1.15;;;;;;;2.81;56.27;100126.50;4473913;31;33031;-78
2022/01/21 02:45:02;;;;;;;3.55;1.10;;;;;;;2.87;56.14;100112.34;4474716;31;34505;-78
2022/01/21 02:47:30;;;;;;;3.22;1.00;;;;;;;2.83;56.27;100105.50;4474292;31;32479;-78
2022/01/21 02:49:58;;;;;;;4.65;1.20;;;;;;;2.44;57.43;100104.81;4473833;31;32143;-77
2022/01/21 02:52:31;;;;;;;1.40;0.77;;;;;;;2.72;56.85;100119.25;4474974;31;32100;-78
2022/01/21 02:54:58;;;;;;;2.45;1.05;;;;;;;2.61;56.87;100124.84;4488287;31;35167;-78
2022/01/21 02:57:26;;;;;;;3.33;1.37;;;;;;;2.62;56.67;100124.69;4473944;31;32477;-78
2022/01/21 02:59:53;;;;;;;4.87;1.00;;;;;;;2.89;55.81;100126.59;4487410;31;34054;-77
2022/01/21 03:02:21;;;;;;;2.42;1.08;;;;;;;2.48;56.74;100124.34;4487599;31;32463;-78
2022/01/21 03:05:07;;;;;;;5.05;1.08;;;;;;;2.59;56.62;100118.75;4475607;31;34705;-77
2022/01/21 03:07:35;;;;;;;3.55;1.10;;;;;;;2.67;56.54;100124.25;4477389;31;32370;-77
2022/01/21 03:10:05;;;;;;;3.83;1.00;;;;;;;2.70;56.48;100132.09;4488744;31;33685;-77
2022/01/21 03:12:41;;;;;;;5.30;1.50;;;;;;;1.93;58.53;100138.53;4476192;31;32176;-77
2022/01/21 03:15:11;;;;;;;3.40;1.40;;;;;;;1.72;59.22;100145.94;4475793;31;35329;-77
2022/01/21 03:17:39;;;;;;;7.05;1.77;;;;;;;2.07;58.67;100141.78;4475450;31;33246;-77
2022/01/21 03:20:07;;;;;;;7.75;1.30;;;;;;;1.89;59.06;100147.94;4502816;31;33254;-77
2022/01/21 03:22:36;;;;;;;5.37;1.40;;;;;;;1.87;59.32;100149.09;4488856;31;33609;-76
2022/01/21 03:25:05;;;;;;;4.68;1.30;;;;;;;2.00;58.77;100138.78;4488564;31;34413;-76
2022/01/21 03:27:35;;;;;;;4.07;1.52;;;;;;;1.79;59.53;100149.78;4502704;31;34627;-76
2022/01/21 03:30:08;;;;;;;3.33;1.30;;;;;;;1.93;59.35;100145.81;4488309;31;32637;-76
2022/01/21 03:32:37;;;;;;;4.68;1.83;;;;;;;1.75;59.67;100170.00;4488262;31;32295;-76
2022/01/21 03:35:09;;;;;;;4.57;1.60;;;;;;;1.84;59.69;100166.47;4475999;31;34496;-76
2022/01/21 03:37:37;;;;;;;2.40;1.10;;;;;;;2.15;58.80;100166.28;4488665;31;34555;-76
2022/01/21 03:40:05;;;;;;;5.32;1.20;;;;;;;1.83;59.26;100172.87;4488493;31;33152;-76
2022/01/21 03:42:33;;;;;;;3.75;1.67;;;;;;;1.71;59.13;100162.31;4488129;31;33732;-76
2022/01/21 03:45:02;;;;;;;1.90;1.08;;;;;;;1.85;58.96;100162.75;4488125;31;33788;-77
2022/01/21 03:47:29;;;;;;;3.85;1.20;;;;;;;1.90;58.41;100163.19;4488183;31;32204;-76
2022/01/21 03:50:18;;;;;;;2.40;1.08;;;;;;;1.95;58.13;100162.75;4475382;31;34232;-76
2022/01/21 03:52:45;;;;;;;3.95;1.50;;;;;;;1.85;58.59;100161.91;4491060;31;33596;-76
2022/01/21 03:55:13;;;;;;;2.17;0.90;;;;;;;1.81;58.71;100150.50;4488179;31;33728;-76
2022/01/21 03:57:43;;;;;;;2.60;1.00;;;;;;;1.98;57.78;100159.75;4488394;31;33955;-76
2022/01/21 04:00:16;;;;;;;3.55;1.30;;;;;;;1.75;58.62;100164.59;4488180;31;33314;-76
2022/01/21 04:02:44;;;;;;;3.97;1.10;;;;;;;2.09;57.80;100165.00;4475052;31;32364;-76
2022/01/21 04:05:13;;;;;;;6.37;1.20;;;;;;;1.58;58.22;100166.13;4488591;31;34615;-76
2022/01/21 04:07:41;;;;;;;4.62;1.45;;;;;;;1.98;57.21;100166.00;4475019;31;32324;-76
2022/01/21 04:10:10;;;;;;;3.90;1.58;;;;;;;1.27;57.51;100156.41;4488303;31;33758;-76
2022/01/21 04:12:41;;;;;;;8.00;1.98;;;;;;;1.75;56.71;100150.22;4502744;31;34487;-76
2022/01/21 04:15:09;;;;;;;3.90;1.60;;;;;;;1.67;56.42;100144.66;4488091;31;34266;-75
2022/01/21 04:17:37;;;;;;;5.78;1.40;;;;;;;1.79;57.75;100146.22;4475057;31;32360;-75
2022/01/21 04:20:06;;;;;;;4.05;1.35;;;;;;;1.68;55.53;100143.66;4488538;31;33242;-75
2022/01/21 04:22:34;;;;;;;5.45;1.87;;;;;;;1.39;55.45;100162.53;4474932;31;33206;-75
2022/01/21 04:25:03;;;;;;;3.42;1.23;;;;;;;1.14;56.13;100162.06;4487797;31;35246;-74
2022/01/21 04:27:31;;;;;;;3.42;1.50;;;;;;;1.28;55.25;100174.34;4488465;31;33854;-75
2022/01/21 04:30:01;;;;;;;6.20;1.52;;;;;;;1.23;55.33;100171.19;4475022;31;31621;-75
2022/01/21 04:32:32;;;;;;;3.33;1.10;;;;;;;0.98;55.93;100178.78;4475893;31;33735;-75
2022/01/21 04:35:00;;;;;;;5.33;1.27;;;;;;;0.85;56.64;100188.97;4474929;31;32961;-73
2022/01/21 04:37:31;;;;;;;4.72;1.30;;;;;;;0.94;56.17;100187.31;4487821;31;32559;-74
2022/01/21 04:40:12;;;;;;;3.65;1.02;;;;;;;1.53;54.64;100189.19;4487884;31;32092;-75
2022/01/21 04:48:15;;;;;;;5.83;1.30;;;;;;;1.18;54.77;100204.06;4490375;31;33846;-75
2022/01/21 04:53:17;;;;;;;6.10;1.30;;;;;;;1.09;55.17;100212.97;4487663;31;33463;-76
2022/01/21 04:55:49;;;;;;;2.97;1.30;;;;;;;0.93;55.28;100223.41;4488214;31;34649;-76
2022/01/21 04:58:17;;;;;;;3.80;1.17;;;;;;;0.86;55.31;100215.00;4487913;31;33940;-76
2022/01/21 05:00:46;;;;;;;8.02;1.40;;;;;;;0.56;56.48;100221.22;4488317;31;33162;-76
2022/01/21 05:03:17;;;;;;;3.93;1.27;;;;;;;1.17;54.61;100228.50;4462160;31;31959;-76
2022/01/21 05:05:45;;;;;;;6.07;1.40;;;;;;;1.06;55.02;100221.34;4487525;31;34328;-76
2022/01/21 05:08:24;;;;;;;4.63;1.47;;;;;;;1.20;54.83;100221.00;4487937;31;34713;-76
2022/01/21 05:10:52;;;;;;;5.00;1.40;;;;;;;1.10;55.00;100244.41;4476438;31;33119;-76
2022/01/21 05:13:24;;;;;;;3.97;1.43;;;;;;;0.77;55.37;100223.03;4474897;31;33631;-76
2022/01/21 05:18:26;;;;;;;6.87;1.70;;;;;;;0.94;55.12;100235.94;4475617;31;33266;-76
2022/01/21 05:20:56;;;;;;;3.08;1.10;;;;;;;1.13;54.21;100236.03;4475368;31;33384;-76
2022/01/21 05:23:25;;;;;;;16.05;5.57;;;;;;;0.27;56.07;100249.84;4474528;31;32919;-76
2022/01/21 05:25:53;;;;;;;6.00;1.90;;;;;;;0.54;56.21;100260.16;4473564;31;35264;-76
2022/01/21 05:28:21;;;;;;;4.80;1.90;;;;;;;0.59;55.61;100257.94;4474347;31;32526;-76
2022/01/21 05:30:53;;;;;;;6.40;1.70;;;;;;;0.91;54.61;100253.28;4475174;31;33099;-76
2022/01/21 05:33:21;;;;;;;4.00;1.75;;;;;;;0.77;54.75;100259.00;4461922;31;33189;-76
2022/01/21 05:35:53;;;;;;;6.03;1.67;;;;;;;0.69;54.56;100261.53;4488110;31;34994;-74
2022/01/21 05:38:23;;;;;;;2.80;1.23;;;;;;;0.70;55.61;100254.28;4472870;31;34693;-76
2022/01/21 05:40:51;;;;;;;3.63;1.27;;;;;;;0.92;56.56;100265.78;4487077;31;33107;-76
2022/01/21 05:43:22;;;;;;;4.32;1.48;;;;;;;0.85;55.31;100261.91;4474315;31;33214;-76
2022/01/21 05:48:42;;;;;;;3.53;1.62;;;;;;;1.16;54.20;100267.34;4487304;31;32417;-81
2022/01/21 05:51:16;;;;;;;6.10;1.33;;;;;;;0.29;56.53;100264.09;4462077;31;31901;-77
2022/01/21 05:53:47;;;;;;;3.23;1.40;;;;;;;0.40;56.43;100255.06;4461781;31;33144;-81
2022/01/21 05:56:15;;;;;;;13.80;4.70;;;;;;;0.28;56.77;100282.13;4488311;31;34622;-77
2022/01/21 05:58:43;;;;;;;7.07;2.33;;;;;;;0.30;57.92;100293.66;4487912;31;33919;-76
2022/01/21 06:01:14;;;;;;;9.33;1.90;;;;;;;0.47;56.20;100291.37;4474634;31;33872;-77
2022/01/21 06:03:42;;;;;;;13.35;5.37;;;;;;;0.37;56.46;100302.09;4475333;31;33567;-77
2022/01/21 06:06:12;;;;;;;4.30;1.73;;;;;;;0.51;55.96;100309.88;4486774;31;33272;-77
2022/01/21 06:08:40;;;;;;;6.77;2.80;;;;;;;0.28;56.16;100309.13;4474316;31;32379;-76
2022/01/21 06:11:08;;;;;;;4.57;1.60;;;;;;;0.60;55.54;100324.44;4475015;31;33942;-77
2022/01/21 06:13:38;;;;;;;4.45;1.65;;;;;;;0.70;55.29;100329.91;4474517;31;33498;-77
2022/01/21 06:16:08;;;;;;;7.07;1.80;;;;;;;0.25;55.97;100338.19;4474384;31;34152;-78
2022/01/21 06:18:41;;;;;;;24.17;9.30;;;;;;;0.82;55.15;100342.37;4459852;31;32414;-78
2022/01/21 06:21:16;;;;;;;8.45;3.22;;;;;;;0.55;55.73;100351.00;4485388;31;33202;-78
2022/01/21 06:23:46;;;;;;;6.43;2.33;;;;;;;0.90;54.54;100354.25;4472502;31;33453;-78
2022/01/21 06:26:16;;;;;;;8.07;2.80;;;;;;;0.98;54.02;100365.25;4458780;31;32986;-78
2022/01/21 06:28:49;;;;;;;7.03;2.53;;;;;;;0.88;54.68;100369.72;4472935;31;34136;-78
2022/01/21 06:31:23;;;;;;;7.67;2.10;;;;;;;0.59;54.89;100371.34;4471962;31;33965;-78
2022/01/21 06:33:57;;;;;;;7.10;1.90;;;;;;;1.03;54.35;100375.66;4472389;31;34680;-78
2022/01/21 06:36:31;;;;;;;5.17;2.20;;;;;;;0.25;55.50;100371.44;4472668;31;34411;-78
2022/01/21 06:39:05;;;;;;;6.70;2.57;;;;;;;0.67;55.24;100387.75;4459604;31;33280;-78
2022/01/21 06:41:33;;;;;;;5.07;1.83;;;;;;;0.80;54.90;100388.44;4472797;31;31839;-78
2022/01/21 06:44:07;;;;;;;5.33;2.30;;;;;;;0.23;56.40;100384.22;4473358;31;32331;-77
2022/01/21 06:46:43;;;;;;;9.55;2.50;;;;;;;0.23;57.08;100386.06;4500919;31;34391;-78
2022/01/21 06:49:15;;;;;;;7.47;2.80;;;;;;;0.14;56.99;100392.19;4474246;31;32497;-78
2022/01/21 06:51:45;;;;;;;19.70;5.20;;;;;;;0.32;56.28;100407.75;4473842;31;31508;-78
2022/01/21 06:54:18;;;;;;;10.23;3.20;;;;;;;-0.02;57.29;100406.13;4473892;31;32294;-78
2022/01/21 06:56:48;;;;;;;6.63;2.43;;;;;;;0.77;55.61;100407.59;4473485;31;34410;-78
2022/01/21 06:59:24;;;;;;;6.37;2.40;;;;;;;0.29;55.73;100417.94;4474019;31;34341;-78
2022/01/21 07:01:51;;;;;;;6.37;1.90;;;;;;;0.28;56.24;100427.03;4460761;31;31675;-78
2022/01/21 07:04:20;;;;;;;7.20;2.40;;;;;;;0.32;55.07;100431.19;4473982;31;33581;-77
2022/01/21 07:06:50;;;;;;;5.13;2.10;;;;;;;0.55;55.14;100421.22;4460596;31;33181;-78
2022/01/21 07:09:18;;;;;;;6.90;2.57;;;;;;;-0.02;56.07;100435.78;4486673;31;33735;-77
2022/01/21 07:11:52;;;;;;;5.13;2.00;;;;;;;0.06;56.05;100444.09;4473960;31;33225;-78
2022/01/21 07:14:23;;;;;;;5.50;1.80;;;;;;;0.75;54.36;100444.69;4473638;31;32245;-78
2022/01/21 07:16:59;;;;;;;7.27;2.00;;;;;;;0.49;54.91;100454.13;4460540;31;33070;-77
2022/01/21 07:19:30;;;;;;;8.68;2.50;;;;;;;0.40;54.63;100449.47;4460941;31;32302;-77
2022/01/21 07:21:59;;;;;;;7.65;2.30;;;;;;;0.47;54.52;100462.34;4486896;31;33172;-77
2022/01/21 07:24:35;;;;;;;11.38;4.37;;;;;;;0.76;54.06;100468.03;4473425;31;34389;-77
2022/01/21 07:27:11;;;;;;;5.50;1.92;;;;;;;0.62;54.28;100461.09;4473408;31;32908;-77
2022/01/21 07:29:38;;;;;;;7.67;2.63;;;;;;;0.94;53.41;100463.78;4486472;31;34003;-78
2022/01/21 07:32:10;;;;;;;8.03;2.43;;;;;;;1.01;53.29;100465.97;4473467;31;33946;-77
2022/01/21 07:34:45;;;;;;;7.33;1.80;;;;;;;0.64;53.30;100466.38;4472913;31;32158;-77
2022/01/21 07:37:19;;;;;;;9.43;3.10;;;;;;;1.08;52.73;100449.12;4486212;31;34211;-77
2022/01/21 07:39:53;;;;;;;8.80;3.47;;;;;;;1.36;52.31;100449.44;4486422;31;34556;-78
2022/01/21 07:42:30;;;;;;;10.43;3.97;;;;;;;1.37;52.07;100441.19;4486767;31;33310;-77
2022/01/21 07:45:03;;;;;;;8.18;2.65;;;;;;;1.06;53.28;100442.12;4486764;31;33689;-77
2022/01/21 07:47:35;;;;;;;6.03;2.03;;;;;;;1.38;52.15;100442.91;4473012;31;35499;-78
2022/01/21 07:50:09;;;;;;;7.20;2.00;;;;;;;1.15;51.58;100438.66;4487349;31;33874;-77
2022/01/21 07:52:45;;;;;;;;;;;;;;;1.23;51.27;100433.44;4475758;31;32804;-78
2022/01/21 07:55:21;;;;;;;6.93;2.43;;;;;;;0.81;52.42;100435.22;4488328;31;32839;-78
2022/01/21 07:57:52;;;;;;;9.88;3.12;;;;;;;1.19;51.60;100440.94;4488191;31;32475;-77
2022/01/21 08:00:20;;;;;;;4.80;1.83;;;;;;;1.31;51.76;100444.44;4488162;31;34474;-78
2022/01/21 08:02:54;;;;;;;11.18;3.50;;;;;;;1.04;51.64;100434.16;4462541;31;32453;-78
2022/01/21 08:05:23;;;;;;;22.92;10.20;;;;;;;0.85;52.02;100469.09;4462016;31;33143;-78
2022/01/21 08:07:57;;;;;;;17.37;6.00;;;;;;;0.82;53.26;100463.94;4488421;31;34175;-77
2022/01/21 08:10:28;;;;;;;6.47;2.42;;;;;;;0.83;52.92;100460.25;4475270;31;32171;-77
2022/01/21 08:13:01;;;;;;;5.73;2.33;;;;;;;1.05;51.15;100445.81;4475271;31;34055;-78
2022/01/21 08:15:35;;;;;;;6.67;2.17;;;;;;;0.70;51.00;100455.03;4462619;31;32633;-78
2022/01/21 08:18:09;;;;;;;8.48;1.60;;;;;;;1.38;51.03;100453.72;4475477;31;34333;-78
2022/01/21 08:20:40;;;;;;;4.00;1.30;;;;;;;1.35;49.88;100447.72;4475505;31;34022;-77
2022/01/21 08:23:14;;;;;;;4.03;1.70;;;;;;;0.79;50.79;100443.44;4475293;31;34466;-78
2022/01/21 08:25:58;;;;;;;3.55;1.40;;;;;;;0.67;50.38;100439.06;4463993;31;32857;-78
2022/01/21 08:28:26;;;;;;;4.10;1.80;;;;;;;0.75;50.81;100433.03;4475076;31;35323;-78
2022/01/21 08:31:00;;;;;;;5.87;1.33;;;;;;;0.09;51.96;100433.06;4476032;31;33759;-78
2022/01/21 08:33:34;;;;;;;4.73;1.60;;;;;;;0.47;51.55;100431.78;4462100;31;31763;-78
2022/01/21 08:36:04;;;;;;;5.63;1.60;;;;;;;0.71;51.13;100445.94;4475538;31;32755;-78
2022/01/21 08:38:41;;;;;;;5.47;1.60;;;;;;;0.48;50.98;100442.47;4475990;31;34314;-77
2022/01/21 08:41:09;;;;;;;7.60;2.50;;;;;;;0.24;51.75;100442.62;4488538;31;33878;-78
2022/01/21 08:43:37;;;;;;;10.67;3.63;;;;;;;0.10;52.96;100456.38;4487322;31;32647;-77
2022/01/21 08:46:11;;;;;;;4.90;1.60;;;;;;;0.48;51.86;100441.59;4462657;31;32241;-78
2022/01/21 08:48:44;;;;;;;4.73;1.70;;;;;;;0.27;52.12;100463.09;4474759;31;34642;-77
2022/01/21 08:51:19;;;;;;;10.50;3.50;;;;;;;0.41;51.54;100461.97;4475282;31;33892;-78
2022/01/21 08:53:50;;;;;;;9.07;2.63;;;;;;;0.32;52.31;100463.59;4475629;31;33076;-78
2022/01/21 08:56:20;;;;;;;5.17;1.80;;;;;;;0.49;51.32;100473.03;4475430;31;33747;-78
2022/01/21 08:58:56;;;;;;;6.67;2.07;;;;;;;-0.01;52.26;100494.16;4474852;31;33099;-78
2022/01/21 09:01:27;;;;;;;3.65;1.55;;;;;;;0.42;51.10;100486.16;4475410;31;34536;-78
2022/01/21 09:04:00;;;;;;;7.87;1.50;;;;;;;0.61;50.53;100502.59;4475357;31;33117;-78
2022/01/21 09:06:33;;;;;;;5.13;1.47;;;;;;;0.33;51.28;100487.75;4487936;31;33760;-78
2022/01/21 09:09:04;;;;;;;3.33;1.47;;;;;;;0.64;51.02;100504.19;4488184;31;34351;-78
2022/01/21 09:12:00;;;;;;;7.20;1.77;;;;;;;0.76;50.40;100516.66;4473905;31;33240;-78
2022/01/21 09:14:34;;;;;;;4.77;1.70;;;;;;;0.70;50.36;100529.78;4488397;31;33125;-78
2022/01/21 09:17:10;;;;;;;7.97;2.00;;;;;;;0.81;49.39;100516.28;4487545;31;33343;-78
2022/01/21 09:19:47;;;;;;;3.62;1.33;;;;;;;0.79;48.97;100516.41;4488613;31;35176;-77
2022/01/21 09:22:27;;;;;;;;;;;;;;;0.81;49.40;100519.84;4475307;31;33449;-77
2022/01/21 09:24:59;;;;;;;7.62;2.33;;;;;;;0.53;51.11;100512.28;4487758;31;34006;-77
2022/01/21 09:27:29;;;;;;;3.70;1.23;;;;;;;0.41;51.00;100514.16;4487480;31;33368;-77
2022/01/21 09:30:05;;;;;;;4.60;1.40;;;;;;;0.21;50.97;100517.59;4462105;31;33027;-77
2022/01/21 09:32:39;;;;;;;5.13;1.50;;;;;;;0.63;50.64;100530.31;4475851;31;34813;-78
2022/01/21 09:35:15;;;;;;;6.17;1.40;;;;;;;0.81;49.72;100536.03;4475206;31;33169;-77
2022/01/21 09:37:43;;;;;;;7.85;1.60;;;;;;;0.66;50.26;100518.37;4462021;31;32122;-78
2022/01/21 09:40:40;;;;;;;7.82;1.50;;;;;;;0.80;49.61;100523.50;4476824;31;33944;-78
2022/01/21 09:43:14;;;;;;;5.05;1.20;;;;;;;0.79;49.70;100523.62;4487371;31;33936;-78
2022/01/21 09:45:43;;;;;;;4.13;1.40;;;;;;;0.97;49.26;100523.00;4474494;31;32738;-78
2022/01/21 09:48:12;;;;;;;4.90;2.13;;;;;;;1.47;48.71;100517.84;4487526;31;33916;-78
2022/01/21 09:50:42;;;;;;;6.57;1.60;;;;;;;1.24;49.14;100518.97;4474485;31;33884;-78
2022/01/21 09:53:19;;;;;;;5.67;1.30;;;;;;;1.12;49.63;100518.16;4475624;31;34478;-77
2022/01/21 09:55:49;;;;;;;3.10;1.50;;;;;;;0.87;49.16;100516.62;4474850;31;33288;-78
2022/01/21 09:58:29;;;;;;;8.10;2.33;;;;;;;1.53;49.00;100519.19;4474631;31;32289;-77
2022/01/21 10:01:07;;;;;;;8.45;2.03;;;;;;;1.52;49.31;100514.75;4475357;31;35333;-78
2022/01/21 10:03:36;;;;;;;7.40;1.93;;;;;;;1.82;48.39;100514.84;4474709;31;32432;-77
2022/01/21 10:06:08;;;;;;;3.33;1.30;;;;;;;1.43;49.61;100520.94;4475052;31;33153;-78
2022/01/21 10:08:47;;;;;;;7.27;1.70;;;;;;;1.57;49.25;100512.53;4487300;31;34497;-78
2022/01/21 10:11:21;;;;;;;10.83;2.33;;;;;;;1.86;48.68;100518.13;4474172;31;32920;-78
2022/01/21 10:13:53;;;;;;;6.25;2.03;;;;;;;1.71;48.77;100519.47;4487245;31;33881;-78
2022/01/21 10:16:24;;;;;;;10.20;2.50;;;;;;;1.94;48.27;100502.09;4474320;31;31719;-78
2022/01/21 10:19:25;;;;;;;7.07;1.98;;;;;;;2.46;47.75;100502.88;4474519;31;33640;-77
2022/01/21 10:21:57;;;;;;;6.60;1.60;;;;;;;2.16;47.22;100507.31;4486976;31;34519;-77
2022/01/21 10:24:25;;;;;;;7.32;1.83;;;;;;;1.80;48.32;100515.97;4487162;31;34394;-77
2022/01/21 10:26:55;;;;;;;10.50;4.43;;;;;;;2.21;48.28;100510.47;4474368;31;33279;-78
2022/01/21 10:29:25;;;;;;;14.03;4.23;;;;;;;2.34;48.47;100498.56;4487174;31;34310;-78
2022/01/21 10:32:06;;;;;;;25.35;10.25;;;;;;;2.49;47.92;100508.03;4462428;31;32965;-77
2022/01/21 10:34:38;;;;;;;11.07;3.40;;;;;;;2.36;48.31;100502.84;4473937;31;32464;-77
2022/01/21 10:37:22;;;;;;;12.15;3.03;;;;;;;2.61;47.64;100501.47;4487410;31;33493;-78
2022/01/21 10:40:09;;;;;;;5.60;2.20;;;;;;;2.42;48.11;100514.97;4486837;31;32448;-78
2022/01/21 10:42:41;;;;;;;8.25;3.50;;;;;;;2.78;47.17;100505.37;4486850;31;34250;-78
2022/01/21 10:45:14;;;;;;;8.93;2.72;;;;;;;2.64;47.16;100509.34;4474022;31;34531;-78
2022/01/21 10:47:50;;;;;;;6.28;2.12;;;;;;;2.90;46.98;100515.97;4487285;31;33207;-78
2022/01/21 10:50:22;;;;;;;7.00;3.22;;;;;;;2.81;47.18;100526.78;4473633;31;34108;-76
2022/01/21 10:52:52;;;;;;;26.77;11.18;;;;;;;2.83;47.43;100512.09;4473970;31;34800;-77
2022/01/21 10:55:26;;;;;;;11.20;4.47;;;;;;;2.65;48.25;100524.59;4473770;31;34373;-78
2022/01/21 10:58:12;;;;;;;10.95;2.95;;;;;;;2.53;48.06;100523.00;4500921;31;32882;-77
2022/01/21 11:01:01;;;;;;;13.73;5.80;;;;;;;2.41;48.25;100521.41;4473699;31;32970;-76
2022/01/21 11:03:33;;;;;;;10.43;3.47;;;;;;;1.93;49.76;100527.44;4487122;31;34553;-77
2022/01/21 11:06:18;;;;;;;7.25;1.92;;;;;;;2.40;48.44;100519.69;4486363;31;33733;-77
2022/01/21 11:09:17;;;;;;;7.35;1.90;;;;;;;2.49;47.65;100516.16;4484695;31;33315;-75
2022/01/21 11:11:47;;;;;;;7.25;2.78;;;;;;;2.47;48.32;100521.72;4459823;31;31855;-75
2022/01/21 11:14:21;;;;;;;8.10;2.20;;;;;;;2.45;48.35;100518.28;4473537;31;35254;-75
2022/01/21 11:16:58;;;;;;;5.55;1.62;;;;;;;2.06;48.57;100519.94;4486526;31;32393;-77
2022/01/21 11:20:16;;;;;;;6.70;2.67;;;;;;;2.42;49.10;100509.56;4476062;31;31805;-78
2022/01/21 11:22:56;;;;;;;11.18;2.92;;;;;;;2.80;49.84;100496.09;4473517;31;33277;-78
2022/01/21 11:25:43;;;;;;;12.43;4.32;;;;;;;2.98;50.08;100489.00;4488020;31;35017;-77
2022/01/21 11:28:15;;;;;;;7.90;2.37;;;;;;;2.87;48.50;100489.13;4502794;31;34911;-78
2022/01/21 11:30:55;;;;;;;12.27;3.80;;;;;;;2.63;47.97;100499.50;4489837;31;33958;-78
2022/01/21 11:33:23;;;;;;;9.80;4.10;;;;;;;2.32;48.37;100490.56;4489033;31;33480;-78
2022/01/21 11:35:57;;;;;;;11.45;2.70;;;;;;;2.29;49.34;100471.88;4476309;31;34366;-85
2022/01/21 11:38:31;;;;;;;9.80;2.78;;;;;;;2.58;48.01;100474.69;4475539;31;34628;-78
2022/01/21 11:41:05;;;;;;;18.15;8.00;;;;;;;1.93;49.18;100457.06;4487793;31;33410;-78
2022/01/21 11:43:47;;;;;;;9.35;4.07;;;;;;;2.37;48.53;100471.19;4488781;31;33968;-79
2022/01/21 11:46:26;;;;;;;7.22;2.33;;;;;;;2.55;47.93;100459.56;4489373;31;34408;-77
2022/01/21 11:48:58;;;;;;;6.05;2.37;;;;;;;2.37;47.94;100428.72;4463565;31;32567;-78
2022/01/21 11:51:32;;;;;;;10.98;3.40;;;;;;;2.26;47.59;100431.53;4488763;31;33484;-78
2022/01/21 11:54:13;;;;;;;11.05;4.95;;;;;;;2.64;47.00;100426.19;4475520;31;32254;-77
2022/01/21 11:57:02;;;;;;;8.00;2.55;;;;;;;2.60;46.95;100418.50;4462732;31;33063;-78
2022/01/21 12:02:30;;;;;;;5.72;1.83;;;;;;;2.13;47.08;100412.81;4475257;31;32097;-78
2022/01/21 12:05:03;;;;;;;7.75;2.22;;;;;;;2.59;45.99;100411.38;4488222;31;32129;-78
2022/01/21 12:07:34;;;;;;;22.83;8.75;;;;;;;2.70;46.22;100408.50;4488750;31;33334;-78
2022/01/21 12:10:06;;;;;;;22.73;8.65;;;;;;;2.52;47.13;100410.22;4488411;31;33947;-78
2022/01/21 12:12:50;;;;;;;7.97;2.53;;;;;;;2.75;45.95;100389.13;4459343;32;31685;-78
2022/01/21 12:21:30;;;;;;;14.27;2.33;;;;;;;2.64;45.91;100400.94;4453036;32;34135;-77
2022/01/21 12:24:03;;;;;;;6.35;1.48;;;;;;;2.75;45.63;100418.94;4460002;32;33776;-78
2022/01/21 12:26:32;;;;;;;5.95;2.05;;;;;;;2.73;45.78;100397.38;4460571;32;32146;-78
2022/01/21 12:28:59;;;;;;;10.40;2.45;;;;;;;3.01;45.62;100386.69;4443830;32;34406;-77
2022/01/21 12:31:54;;;;;;;5.30;1.87;;;;;;;2.87;45.52;100369.84;4497484;31;34108;-78
2022/01/21 12:34:49;;;;;;;10.35;2.87;;;;;;;3.38;44.92;100381.34;4476791;31;33101;-78
2022/01/21 12:40:39;;;;;;;4.93;1.40;;;;;;;3.01;45.25;100405.69;4441702;32;34804;-78
2022/01/21 12:43:41;;;;;;;9.40;2.65;;;;;;;2.76;46.10;100388.97;4456653;31;34745;-78
2022/01/21 12:46:15;;;;;;;6.68;1.98;;;;;;;3.09;45.49;100378.69;4476014;31;34354;-79
2022/01/21 12:48:44;;;;;;;21.17;8.05;;;;;;;2.95;45.25;100383.56;4474888;31;33118;-78
2022/01/21 12:51:32;;;;;;;8.25;2.70;;;;;;;2.65;47.15;100380.97;4477036;31;34292;-76
2022/01/21 12:56:49;;;;;;;9.27;3.60;;;;;;;3.03;45.60;100401.81;4502451;31;33127;-77
2022/01/21 12:59:20;;;;;;;6.15;2.05;;;;;;;2.64;45.95;100390.94;4462051;31;33153;-77
2022/01/21 13:01:49;;;;;;;7.90;1.62;;;;;;;2.75;45.84;100395.38;4462066;31;32915;-78
2022/01/21 13:04:46;;;;;;;5.40;1.70;;;;;;;2.42;46.26;100404.78;4475053;31;33206;-78